Terminal Aerodrome Forecast
Issued by NWS

Home | Current Version | Previous Version | Text Only | Print | Product List | Glossary On
Versions: 1 2 3 4 5 6 7 8 9 10 11 12 13 14 15 16
000
FTUS46 KMTR 301600 AAA
TAFMRY
TAF AMD
KMRY 301608Z 3016/3112 VRB03KT P6SM OVC006
     FM301800 28005KT P6SM SCT006 SCT150
     FM302100 26010KT P6SM SKC
     FM310400 25005KT P6SM OVC008
     FM310600 VRB03KT P6SM OVC004=

USA.gov is the U.S. government's official web portal to all federal, state and local government web resources and services.